Weather History for Lambertville, MI

Change the Weather History Date:

Wednesday, March 12, 2014

  Actual Average (KTOL) Record (KTOL)
Temperature  
Mean Temperature 28 °F 36 °F  
Max Temperature 41 °F 45 °F 76 °F (1990)
Min Temperature 12 °F 27 °F -10 °F (1948)
Degree Days  
Heating Degree Days 38 29  
Month to date heating degree days 372  
Since 1 July heating degree days 4948  
Cooling Degree Days 0 0  
Month to date cooling degree days 0  
Year to date cooling degree days 0  
Moisture  
Dew Point 22 °F    
Average Humidity 79    
Maximum Humidity 93    
Minimum Humidity 58    
Precipitation  
Precipitation 0.00 in 0.07 in 1.32 in (2012)
Month to date precipitation 0.90  
Year to date precipitation 5.02  
Snow  
Snow 0.00 in 0.30 in - ()
Month to date snowfall 2.9  
Since 1 July snowfall 33.4  
Snow Depth -    
Sea Level Pressure  
Sea Level Pressure 29.70 in    
Wind  
Wind Speed 10 mph (North)    
Max Wind Speed 23 mph    
Max Gust Speed 34 mph    
Visibility 7 miles    
Events Snow    
T = Trace of Precipitation, MM = Missing Value Source: NWS Daily Summary

Daily Weather History Graph

Daily Weather History Graph

Search for Another Location

Airport:

Trip Planner

Search our weather history database for the weather conditions in past years. The results will help you decide how hot, cold, wet, or windy it might be!

Date:

Astronomy

Mar. 12, 2014 Rise Set
Actual Time 7:51 AM EDT 7:37 PM EDT
Civil Twilight 7:23 AM EDT 8:05 PM EDT
Nautical Twilight 6:51 AM EDT 8:37 PM EDT
Astronomical Twilight 6:19 AM EDT 9:10 PM EDT
Moon 4:05 PM EDT (3/12) 5:25 AM EDT (3/12)
Length of Visible Light 12h 41m
Length of Day
11h 46m
Waxing Gibbous, 85% of the Moon is Illuminated
Mar 12
Waxing Gibbous
Mar 16
Full
Mar 23
Last Quarter
Mar 30
New
Apr 7
First Quarter

Hourly Weather History & Observations

Time (EDT) Temp. Windchill Dew Point Humidity Pressure Visibility Wind Dir Wind Speed Gust Speed Precip Events Conditions
12:15 AM 41.0 °F 37.1 °F 35.6 °F 81% 29.69 in 10.0 mi NNE 5.8 mph - N/A   Mostly Cloudy
12:35 AM 41.0 °F 37.1 °F 35.6 °F 81% 29.68 in 10.0 mi NNE 5.8 mph - N/A   Mostly Cloudy
12:55 AM 41.0 °F 37.1 °F 35.6 °F 81% 29.68 in 10.0 mi ENE 5.8 mph - N/A   Overcast
1:15 AM 41.0 °F 39.0 °F 35.6 °F 81% 29.67 in 10.0 mi NE 3.5 mph - N/A   Overcast
1:35 AM 41.0 °F 38.0 °F 35.6 °F 81% 29.66 in 10.0 mi East 4.6 mph - N/A   Overcast
1:55 AM 39.2 °F 32.5 °F 33.8 °F 81% 29.65 in 10.0 mi ENE 10.4 mph - N/A   Overcast
2:15 AM 37.4 °F 30.8 °F 32.0 °F 81% 29.65 in 10.0 mi NE 9.2 mph 16.1 mph N/A   Overcast
2:35 AM 35.6 °F 28.0 °F 32.0 °F 87% 29.65 in 10.0 mi ENE 10.4 mph 18.4 mph N/A   Overcast
2:55 AM 35.6 °F 26.6 °F 32.0 °F 87% 29.64 in 10.0 mi NE 13.8 mph 19.6 mph N/A   Overcast
3:15 AM 35.6 °F 27.5 °F 32.0 °F 87% 29.63 in 10.0 mi NE 11.5 mph 17.3 mph N/A   Overcast
3:35 AM 35.6 °F 29.2 °F 32.0 °F 87% 29.62 in 10.0 mi NE 8.1 mph 16.1 mph N/A   Overcast
3:55 AM 33.8 °F 25.3 °F 30.2 °F 87% 29.61 in 10.0 mi NE 11.5 mph 23.0 mph N/A   Overcast
4:15 AM 33.8 °F 25.3 °F 30.2 °F 87% 29.59 in 10.0 mi NE 11.5 mph 17.3 mph N/A   Overcast
4:35 AM 33.8 °F 24.3 °F 30.2 °F 87% 29.58 in 10.0 mi NE 13.8 mph 23.0 mph N/A   Overcast
4:55 AM 33.8 °F 25.3 °F 28.4 °F 81% 29.56 in 10.0 mi NE 11.5 mph 21.9 mph N/A   Overcast
5:15 AM 33.8 °F 24.8 °F 26.6 °F 75% 29.55 in 10.0 mi NE 12.7 mph 21.9 mph N/A   Overcast
5:35 AM 33.8 °F 24.3 °F 26.6 °F 75% 29.55 in 7.0 mi NNE 13.8 mph 21.9 mph N/A Snow Light Snow
5:55 AM 32.0 °F 21.6 °F 28.4 °F 87% 29.55 in 2.0 mi NNE 15.0 mph 19.6 mph N/A Snow Light Snow
6:15 AM 32.0 °F 22.5 °F 28.4 °F 87% 29.54 in 1.2 mi NNE 12.7 mph 19.6 mph N/A Snow Light Snow
6:35 AM 32.0 °F 20.8 °F 30.2 °F 93% 29.55 in 0.8 mi NNE 17.3 mph 24.2 mph N/A Snow Snow
6:55 AM 32.0 °F 22.5 °F 30.2 °F 93% 29.55 in 0.8 mi NNE 12.7 mph 20.7 mph N/A Snow Snow
7:15 AM 32.0 °F 22.5 °F 30.2 °F 93% 29.54 in 0.5 mi North 12.7 mph 20.7 mph N/A Snow Snow
7:35 AM 32.0 °F 22.1 °F 28.4 °F 87% 29.53 in 0.5 mi North 13.8 mph 23.0 mph N/A Snow Heavy Snow
7:55 AM 32.0 °F 22.1 °F 28.4 °F 87% 29.54 in - North 13.8 mph 24.2 mph N/A   Overcast
8:15 AM 32.0 °F 21.6 °F 28.4 °F 87% 29.53 in - North 15.0 mph 24.2 mph N/A   Overcast
8:35 AM 32.0 °F 22.5 °F 28.4 °F 87% 29.53 in - North 12.7 mph 28.8 mph N/A   Overcast
8:55 AM 32.0 °F 23.0 °F 30.2 °F 93% 29.54 in - North 11.5 mph 25.3 mph N/A   Overcast
9:15 AM 32.0 °F 22.5 °F 30.2 °F 93% 29.53 in - North 12.7 mph 23.0 mph N/A   Overcast
9:35 AM 32.0 °F 22.1 °F 30.2 °F 93% 29.52 in - North 13.8 mph 21.9 mph N/A   Overcast
9:55 AM 32.0 °F 22.5 °F 30.2 °F 93% 29.53 in - NNE 12.7 mph 21.9 mph N/A   Overcast
10:15 AM 32.0 °F 21.6 °F 30.2 °F 93% 29.52 in - NNE 15.0 mph 21.9 mph N/A   Overcast
10:35 AM 32.0 °F 22.1 °F 30.2 °F 93% 29.52 in - North 13.8 mph 21.9 mph N/A   Overcast
10:55 AM 32.0 °F 22.5 °F 30.2 °F 93% 29.52 in - North 12.7 mph 21.9 mph N/A   Overcast
11:15 AM 32.0 °F 21.2 °F 30.2 °F 93% 29.53 in 0.8 mi North 16.1 mph 21.9 mph N/A Snow Light Snow
11:35 AM 32.0 °F 22.1 °F 28.4 °F 87% 29.55 in 1.0 mi North 13.8 mph 24.2 mph N/A Snow Light Snow
11:55 AM 32.0 °F 22.1 °F 28.4 °F 87% 29.56 in 0.8 mi North 13.8 mph 21.9 mph N/A Snow Light Snow
12:15 PM 32.0 °F 19.8 °F 28.4 °F 87% 29.57 in - North 20.7 mph 32.2 mph N/A   Overcast
12:35 PM 32.0 °F 22.1 °F 28.4 °F 87% 29.58 in - North 13.8 mph 28.8 mph N/A   Overcast
12:55 PM 30.2 °F 18.9 °F 28.4 °F 93% 29.60 in - North 16.1 mph 25.3 mph N/A   Overcast
1:15 PM 30.2 °F 19.3 °F 26.6 °F 86% 29.61 in - North 15.0 mph 23.0 mph N/A   Overcast
1:35 PM 30.2 °F 16.8 °F 26.6 °F 86% 29.62 in 0.8 mi NNW 23.0 mph 31.1 mph N/A Snow Light Snow
1:55 PM 28.4 °F 15.8 °F 23.0 °F 80% 29.65 in 0.8 mi North 18.4 mph 34.5 mph N/A Snow Light Snow
2:15 PM 26.6 °F 13.1 °F 21.2 °F 80% 29.66 in 0.8 mi NNW 19.6 mph 28.8 mph N/A Snow Light Snow
2:35 PM 26.6 °F 14.3 °F 19.4 °F 74% 29.68 in 1.2 mi NNW 16.1 mph 28.8 mph N/A Snow Light Snow
2:55 PM 26.6 °F 13.4 °F 19.4 °F 74% 29.68 in 2.5 mi NNW 18.4 mph 26.5 mph N/A   Haze
3:15 PM 24.8 °F 10.7 °F 19.4 °F 80% 29.70 in 1.2 mi NNW 19.6 mph 27.6 mph N/A Snow Light Snow
3:35 PM 24.8 °F 12.4 °F 17.6 °F 74% 29.72 in 1.5 mi NNW 15.0 mph 29.9 mph N/A Snow Light Snow
3:55 PM 24.8 °F 12.9 °F 19.4 °F 80% 29.74 in 2.0 mi NNW 13.8 mph 17.3 mph N/A Snow Light Snow
4:15 PM 24.8 °F 11.9 °F 17.6 °F 74% 29.75 in 3.0 mi NNW 16.1 mph 21.9 mph N/A Snow Light Snow
4:35 PM 24.8 °F 14.0 °F 17.6 °F 74% 29.77 in 5.0 mi NNW 11.5 mph 19.6 mph N/A   Haze
4:55 PM 26.6 °F 14.7 °F 15.8 °F 64% 29.79 in 7.0 mi NNW 15.0 mph 21.9 mph N/A   Mostly Cloudy
5:15 PM 24.8 °F 14.0 °F 15.8 °F 69% 29.81 in 10.0 mi NNW 11.5 mph 18.4 mph N/A   Mostly Cloudy
5:35 PM 24.8 °F 13.4 °F 14.0 °F 64% 29.83 in 10.0 mi NNW 12.7 mph 19.6 mph N/A   Overcast
5:55 PM 23.0 °F 11.1 °F 12.2 °F 63% 29.85 in 10.0 mi NNW 12.7 mph 20.7 mph N/A   Mostly Cloudy
6:15 PM 23.0 °F 10.6 °F 12.2 °F 63% 29.86 in 7.0 mi NNW 13.8 mph 21.9 mph N/A   Clear
6:35 PM 21.2 °F 10.1 °F 12.2 °F 68% 29.88 in 10.0 mi NNW 10.4 mph 16.1 mph N/A   Clear
6:55 PM 21.2 °F 9.5 °F 10.4 °F 63% 29.89 in 10.0 mi NNW 11.5 mph 19.6 mph N/A   Clear
7:15 PM 21.2 °F 10.1 °F 10.4 °F 63% 29.91 in 10.0 mi NNW 10.4 mph 17.3 mph N/A   Clear
7:35 PM 19.4 °F 8.6 °F 8.6 °F 63% 29.92 in 10.0 mi NNW 9.2 mph 17.3 mph N/A   Clear
7:55 PM 19.4 °F 10.4 °F 8.6 °F 63% 29.93 in 10.0 mi NNW 6.9 mph - N/A   Clear
8:15 PM 17.6 °F 9.3 °F 6.8 °F 63% 29.94 in 10.0 mi NNW 5.8 mph - N/A   Clear
8:35 PM 15.8 °F 7.2 °F 6.8 °F 68% 29.95 in 10.0 mi NNW 5.8 mph - N/A   Clear
8:55 PM 17.6 °F 12.3 °F 5.0 °F 58% 29.96 in 10.0 mi North 3.5 mph - N/A   Clear
9:15 PM 15.8 °F - 6.8 °F 68% 29.97 in 10.0 mi Calm Calm - N/A   Clear
9:35 PM 15.8 °F 8.6 °F 6.8 °F 68% 29.98 in 10.0 mi North 4.6 mph - N/A   Clear
9:55 PM 15.8 °F 8.6 °F 5.0 °F 62% 29.99 in 10.0 mi North 4.6 mph - N/A   Clear
10:15 PM 14.0 °F 5.1 °F 5.0 °F 67% 29.99 in 10.0 mi NNE 5.8 mph - N/A   Clear
10:35 PM 14.0 °F 6.5 °F 3.2 °F 62% 30.00 in 10.0 mi NNE 4.6 mph - N/A   Clear
10:55 PM 14.0 °F 6.5 °F 3.2 °F 62% 30.01 in 10.0 mi NE 4.6 mph - N/A   Clear
11:15 PM 14.0 °F 6.5 °F 3.2 °F 62% 30.02 in 10.0 mi North 4.6 mph - N/A   Clear
11:35 PM 14.0 °F 8.2 °F 3.2 °F 62% 30.02 in 10.0 mi North 3.5 mph - N/A   Clear
11:55 PM 12.2 °F - 3.2 °F 67% 30.02 in 10.0 mi Calm Calm - N/A   Clear